Time,TemperatureF,DewpointF,PressureIn,WindDirection,WindDirectionDegrees,WindSpeedMPH,WindSpeedGustMPH,Humidity,HourlyPrecipIn,Conditions,Clouds,dailyrainin,SoftwareType,DateUTC
2013-01-02 00:03:00,22.8,-2.6,29.26,SW,234,7.6,10.5,32,0.00,,SKC,0.00,VWS V14.01,2013-01-02 06:03:00,
2013-01-02 00:08:00,22.8,-2.6,29.26,WSW,254,11.0,11.0,32,0.00,,SKC,0.00,VWS V14.01,2013-01-02 06:08:00,
2013-01-02 00:13:00,22.8,-2.6,29.26,West,261,10.1,10.1,32,0.00,,SKC,0.00,VWS V14.01,2013-01-02 06:13:00,
2013-01-02 00:18:00,22.8,-2.6,29.26,WSW,246,10.1,12.8,32,0.00,,SKC,0.00,VWS V14.01,2013-01-02 06:18:00,
2013-01-02 00:23:00,22.8,-2.6,29.26,West,263,10.1,10.1,32,0.00,,SKC,0.00,VWS V14.01,2013-01-02 06:23:00,
2013-01-02 00:28:00,22.6,-2.8,29.29,WSW,257,10.5,10.5,32,0.00,,SKC,0.00,VWS V14.01,2013-01-02 06:28:00,
2013-01-02 00:33:00,22.8,-2.6,29.29,WSW,238,8.3,8.3,32,0.00,,SKC,0.00,VWS V14.01,2013-01-02 06:33:00,
2013-01-02 00:38:00,22.6,-2.8,29.29,SW,228,8.3,8.3,32,0.00,,SKC,0.00,VWS V14.01,2013-01-02 06:38:00,
2013-01-02 00:43:00,22.6,-2.8,29.26,WSW,252,8.3,10.1,32,0.00,,SKC,0.00,VWS V14.01,2013-01-02 06:43:00,
2013-01-02 00:48:00,22.6,-2.8,29.26,WSW,251,8.1,10.1,32,0.00,,SKC,0.00,VWS V14.01,2013-01-02 06:48:00,
2013-01-02 00:53:00,22.6,-2.8,29.26,WSW,244,8.7,10.5,32,0.00,,SKC,0.00,VWS V14.01,2013-01-02 06:53:00,
2013-01-02 00:58:00,22.6,-2.8,29.29,WSW,252,13.2,13.2,32,0.00,,SKC,0.00,VWS V14.01,2013-01-02 06:58:00,
2013-01-02 01:03:00,22.6,-2.8,29.29,SW,234,8.1,8.1,32,0.00,,SKC,0.00,VWS V14.01,2013-01-02 07:03:00,
2013-01-02 01:08:00,22.6,-2.1,29.29,SW,225,10.1,10.1,33,0.00,,SKC,0.00,VWS V14.01,2013-01-02 07:08:00,
2013-01-02 01:13:00,22.6,-2.8,29.26,WSW,240,8.7,8.7,32,0.00,,SKC,0.00,VWS V14.01,2013-01-02 07:13:00,
2013-01-02 01:18:00,22.6,-2.1,29.26,West,270,11.9,11.9,33,0.00,,SKC,0.00,VWS V14.01,2013-01-02 07:18:00,
2013-01-02 01:23:00,22.8,-2.0,29.26,WSW,256,13.2,13.2,33,0.00,,SKC,0.00,VWS V14.01,2013-01-02 07:23:00,
2013-01-02 01:28:00,22.8,-2.0,29.26,WSW,257,15.4,15.4,33,0.00,,SKC,0.00,VWS V14.01,2013-01-02 07:28:00,
2013-01-02 01:33:00,22.8,-2.6,29.26,WSW,245,7.6,8.1,32,0.00,,SKC,0.00,VWS V14.01,2013-01-02 07:33:00,
2013-01-02 01:38:00,22.6,-2.8,29.26,West,275,8.3,9.6,32,0.00,,SKC,0.00,VWS V14.01,2013-01-02 07:38:00,
2013-01-02 01:43:00,22.6,-4.1,29.29,WSW,241,8.3,8.3,30,0.00,,SKC,0.00,VWS V14.01,2013-01-02 07:43:00,
2013-01-02 01:48:00,22.6,-2.8,29.29,WSW,249,8.3,10.1,32,0.00,,SKC,0.00,VWS V14.01,2013-01-02 07:48:00,
2013-01-02 01:53:00,22.8,-2.6,29.29,WSW,253,8.7,8.7,32,0.00,,SKC,0.00,VWS V14.01,2013-01-02 07:53:00,
2013-01-02 01:58:00,22.8,-2.6,29.26,WSW,249,10.1,10.1,32,0.00,,SKC,0.00,VWS V14.01,2013-01-02 07:58:00,
2013-01-02 02:03:00,22.6,-2.8,29.26,WSW,237,7.6,7.6,32,0.00,,SKC,0.00,VWS V14.01,2013-01-02 08:03:00,
2013-01-02 02:08:00,22.6,-2.1,29.26,WSW,240,8.1,8.7,33,0.00,,SKC,0.00,VWS V14.01,2013-01-02 08:08:00,
2013-01-02 02:13:00,22.5,-2.3,29.29,WSW,255,7.6,7.6,33,0.00,,SKC,0.00,VWS V14.01,2013-01-02 08:13:00,
2013-01-02 02:18:00,22.6,-2.1,29.29,SW,235,8.3,8.3,33,0.00,,SKC,0.00,VWS V14.01,2013-01-02 08:18:00,
2013-01-02 02:23:00,22.6,-2.1,29.29,SW,228,8.1,8.1,33,0.00,,SKC,0.00,VWS V14.01,2013-01-02 08:23:00,
2013-01-02 02:28:00,22.5,-2.3,29.29,SW,229,8.1,8.1,33,0.00,,SKC,0.00,VWS V14.01,2013-01-02 08:28:00,
2013-01-02 02:33:00,22.5,-1.6,29.29,SSW,213,5.4,7.6,34,0.00,,SKC,0.00,VWS V14.01,2013-01-02 08:33:00,
2013-01-02 02:38:00,22.3,-1.8,29.29,SW,220,6.3,6.3,34,0.00,,SKC,0.00,VWS V14.01,2013-01-02 08:38:00,
2013-01-02 02:43:00,22.5,-0.4,29.29,SW,230,7.6,7.6,36,0.00,,SKC,0.00,VWS V14.01,2013-01-02 08:43:00,
2013-01-02 02:48:00,22.6,0.3,29.29,WSW,238,6.3,8.1,37,0.00,,SKC,0.00,VWS V14.01,2013-01-02 08:48:00,
2013-01-02 02:53:00,22.8,-0.1,29.29,SW,236,6.3,6.3,36,0.00,,SKC,0.00,VWS V14.01,2013-01-02 08:53:00,
2013-01-02 02:58:00,22.8,0.5,29.29,WSW,242,7.6,8.3,37,0.00,,SKC,0.00,VWS V14.01,2013-01-02 08:58:00,
2013-01-02 03:03:00,22.8,0.5,29.29,SW,232,4.9,7.6,37,0.00,,SKC,0.00,VWS V14.01,2013-01-02 09:03:00,
2013-01-02 03:08:00,22.6,0.3,29.29,SW,226,5.8,8.7,37,0.00,,SKC,0.00,VWS V14.01,2013-01-02 09:08:00,
2013-01-02 03:13:00,22.6,0.9,29.29,WSW,247,7.6,8.3,38,0.00,,SKC,0.00,VWS V14.01,2013-01-02 09:13:00,
2013-01-02 03:18:00,22.6,1.4,29.29,WSW,251,14.5,14.5,39,0.00,,SKC,0.00,VWS V14.01,2013-01-02 09:18:00,
2013-01-02 03:23:00,22.8,2.1,29.29,SW,232,5.4,5.4,40,0.00,,SKC,0.00,VWS V14.01,2013-01-02 09:23:00,
2013-01-02 03:28:00,23.0,3.3,29.29,West,260,6.7,8.3,42,0.00,,SKC,0.00,VWS V14.01,2013-01-02 09:28:00,
2013-01-02 03:33:00,23.2,2.5,29.29,West,259,11.0,11.9,40,0.00,,SKC,0.00,VWS V14.01,2013-01-02 09:33:00,
2013-01-02 03:38:00,23.2,1.9,29.29,WSW,251,11.9,11.9,39,0.00,,SKC,0.00,VWS V14.01,2013-01-02 09:38:00,
2013-01-02 03:43:00,23.2,0.8,29.29,WSW,250,8.7,12.3,37,0.00,,SKC,0.00,VWS V14.01,2013-01-02 09:43:00,
2013-01-02 03:48:00,23.4,0.9,29.29,WSW,250,11.0,11.0,37,0.00,,SKC,0.00,VWS V14.01,2013-01-02 09:48:00,
2013-01-02 03:53:00,23.2,0.8,29.29,West,265,8.7,10.5,37,0.00,,SKC,0.00,VWS V14.01,2013-01-02 09:53:00,
2013-01-02 03:58:00,23.4,1.5,29.29,WSW,254,7.6,8.1,38,0.00,,SKC,0.00,VWS V14.01,2013-01-02 09:58:00,
2013-01-02 04:03:00,23.5,1.7,29.29,WSW,251,4.9,10.5,38,0.00,,SKC,0.00,VWS V14.01,2013-01-02 10:03:00,
2013-01-02 04:08:00,23.5,0.5,29.29,SSW,207,0.0,3.1,36,0.00,,SKC,0.00,VWS V14.01,2013-01-02 10:08:00,
2013-01-02 04:13:00,21.6,-3.7,29.29,ENE,69,2.7,4.0,32,0.00,,SKC,0.00,VWS V14.01,2013-01-02 10:13:00,
2013-01-02 04:18:00,19.8,-4.7,29.29,SW,222,0.0,0.0,33,0.00,,SKC,0.00,VWS V14.01,2013-01-02 10:18:00,
2013-01-02 04:23:00,19.2,-4.5,29.29,SE,137,0.0,0.0,34,0.00,,SKC,0.00,VWS V14.01,2013-01-02 10:23:00,
2013-01-02 04:28:00,18.7,-5.0,29.29,East,82,0.0,3.1,34,0.00,,SKC,0.00,VWS V14.01,2013-01-02 10:28:00,
2013-01-02 04:33:00,18.1,-4.9,29.29,East,92,3.6,3.6,35,0.00,,SKC,0.00,VWS V14.01,2013-01-02 10:33:00,
2013-01-02 04:38:00,17.6,-4.8,29.29,East,91,4.9,6.3,36,0.00,,SKC,0.00,VWS V14.01,2013-01-02 10:38:00,
2013-01-02 04:43:00,17.1,-5.3,29.29,ENE,75,2.7,4.9,36,0.00,,SKC,0.00,VWS V14.01,2013-01-02 10:43:00,
2013-01-02 04:48:00,16.7,-5.6,29.29,ESE,103,4.0,4.0,36,0.00,,SKC,0.00,VWS V14.01,2013-01-02 10:48:00,
2013-01-02 04:53:00,16.5,-5.8,29.29,East,83,4.0,5.8,36,0.00,,SKC,0.00,VWS V14.01,2013-01-02 10:53:00,
2013-01-02 04:58:00,16.2,-6.1,29.29,SE,138,3.1,4.0,36,0.00,,SKC,0.00,VWS V14.01,2013-01-02 10:58:00,
2013-01-02 05:03:00,16.0,-6.2,29.29,East,86,4.9,6.3,36,0.00,,SKC,0.00,VWS V14.01,2013-01-02 11:03:00,
2013-01-02 05:08:00,15.8,-5.8,29.29,SE,127,4.9,4.9,37,0.00,,SKC,0.00,VWS V14.01,2013-01-02 11:08:00,
2013-01-02 05:13:00,15.4,-6.2,29.29,ESE,107,3.6,4.0,37,0.00,,SKC,0.00,VWS V14.01,2013-01-02 11:13:00,
2013-01-02 05:18:00,15.4,-6.2,29.29,East,86,5.4,5.4,37,0.00,,SKC,0.00,VWS V14.01,2013-01-02 11:18:00,
2013-01-02 05:23:00,15.4,-6.2,29.29,SE,130,4.0,4.9,37,0.00,,SKC,0.00,VWS V14.01,2013-01-02 11:23:00,
2013-01-02 05:28:00,15.4,-6.2,29.26,ESE,120,3.1,4.0,37,0.00,,SKC,0.00,VWS V14.01,2013-01-02 11:28:00,
2013-01-02 05:33:00,15.4,-6.2,29.26,East,91,5.4,5.4,37,0.00,,SKC,0.00,VWS V14.01,2013-01-02 11:33:00,
2013-01-02 05:38:00,15.4,-6.2,29.26,East,88,4.0,4.9,37,0.00,,SKC,0.00,VWS V14.01,2013-01-02 11:38:00,
2013-01-02 05:43:00,15.3,-6.3,29.29,East,81,4.9,5.4,37,0.00,,SKC,0.00,VWS V14.01,2013-01-02 11:43:00,
2013-01-02 05:48:00,15.1,-6.5,29.29,ENE,75,5.8,5.8,37,0.00,,SKC,0.00,VWS V14.01,2013-01-02 11:48:00,
2013-01-02 05:53:00,14.9,-6.7,29.29,East,97,4.0,4.0,37,0.00,,SKC,0.00,VWS V14.01,2013-01-02 11:53:00,
2013-01-02 05:58:00,14.5,-7.0,29.26,ENE,66,5.4,5.4,37,0.00,,SKC,0.00,VWS V14.01,2013-01-02 11:58:00,
2013-01-02 06:03:00,14.2,-7.3,29.26,East,92,4.9,5.4,37,0.00,,SKC,0.00,VWS V14.01,2013-01-02 12:03:00,
2013-01-02 06:08:00,14.0,-7.5,29.26,East,90,5.4,5.4,37,0.00,,SKC,0.00,VWS V14.01,2013-01-02 12:08:00,
2013-01-02 06:13:00,13.8,-7.6,29.29,East,90,3.6,4.0,37,0.00,,SKC,0.00,VWS V14.01,2013-01-02 12:13:00,
2013-01-02 06:18:00,13.6,-7.8,29.29,East,80,3.6,4.0,37,0.00,,SKC,0.00,VWS V14.01,2013-01-02 12:18:00,
2013-01-02 06:23:00,13.5,-7.9,29.29,East,85,2.7,4.0,37,0.00,,SKC,0.00,VWS V14.01,2013-01-02 12:23:00,
2013-01-02 06:28:00,13.5,-7.9,29.29,East,83,4.0,4.9,37,0.00,,SKC,0.00,VWS V14.01,2013-01-02 12:28:00,
2013-01-02 06:33:00,13.3,-8.1,29.29,East,82,4.0,4.0,37,0.00,,SKC,0.00,VWS V14.01,2013-01-02 12:33:00,
2013-01-02 06:38:00,13.3,-8.1,29.29,East,84,3.1,4.0,37,0.00,,SKC,0.00,VWS V14.01,2013-01-02 12:38:00,
2013-01-02 06:43:00,13.3,-8.1,29.29,East,88,3.1,3.1,37,0.00,,SKC,0.00,VWS V14.01,2013-01-02 12:43:00,
2013-01-02 06:48:00,12.9,-8.4,29.29,East,98,3.6,4.9,37,0.00,,SKC,0.00,VWS V14.01,2013-01-02 12:48:00,
2013-01-02 06:53:00,12.9,-8.4,29.29,East,96,4.9,4.9,37,0.00,,SKC,0.00,VWS V14.01,2013-01-02 12:53:00,
2013-01-02 06:58:00,12.7,-8.6,29.29,East,82,4.5,4.9,37,0.00,,SKC,0.00,VWS V14.01,2013-01-02 12:58:00,
2013-01-02 07:03:00,12.7,-8.6,29.29,East,83,4.0,4.0,37,0.00,,SKC,0.00,VWS V14.01,2013-01-02 13:03:00,
2013-01-02 07:08:00,12.7,-8.6,29.29,ESE,105,5.4,5.4,37,0.00,,SKC,0.00,VWS V14.01,2013-01-02 13:08:00,
2013-01-02 07:13:00,12.6,-8.8,29.29,East,82,4.9,5.4,37,0.00,,SKC,0.00,VWS V14.01,2013-01-02 13:13:00,
2013-01-02 07:18:00,12.6,-8.8,29.29,ESE,107,4.9,5.4,37,0.00,,SKC,0.00,VWS V14.01,2013-01-02 13:18:00,
2013-01-02 07:23:00,12.4,-8.9,29.29,East,101,4.0,5.4,37,0.00,,SKC,0.00,VWS V14.01,2013-01-02 13:23:00,
2013-01-02 07:28:00,12.4,-8.9,29.32,East,84,5.8,5.8,37,0.00,,SKC,0.00,VWS V14.01,2013-01-02 13:28:00,
2013-01-02 07:33:00,12.2,-9.1,29.32,East,93,5.8,5.8,37,0.00,,SKC,0.00,VWS V14.01,2013-01-02 13:33:00,
2013-01-02 07:38:00,12.4,-8.9,29.32,ENE,78,5.4,5.4,37,0.00,,SKC,0.00,VWS V14.01,2013-01-02 13:38:00,
2013-01-02 07:43:00,12.4,-8.9,29.32,East,86,3.6,4.9,37,0.00,,SKC,0.00,VWS V14.01,2013-01-02 13:43:00,
2013-01-02 07:48:00,12.4,-8.9,29.32,East,87,5.4,5.8,37,0.00,,SKC,0.00,VWS V14.01,2013-01-02 13:48:00,
2013-01-02 07:53:00,12.6,-8.8,29.32,East,86,5.8,5.8,37,0.00,,SKC,0.00,VWS V14.01,2013-01-02 13:53:00,
2013-01-02 07:58:00,12.7,-8.6,29.32,ENE,69,5.8,5.8,37,0.00,,SKC,0.00,VWS V14.01,2013-01-02 13:58:00,
2013-01-02 08:03:00,12.9,-8.4,29.32,ENE,69,5.4,5.4,37,0.00,,SKC,0.00,VWS V14.01,2013-01-02 14:03:00,
2013-01-02 08:08:00,13.5,-7.9,29.32,ENE,69,2.7,3.6,37,0.00,,SKC,0.00,VWS V14.01,2013-01-02 14:08:00,
2013-01-02 08:13:00,14.0,-7.5,29.32,ENE,69,0.0,3.6,37,0.00,,SKC,0.00,VWS V14.01,2013-01-02 14:13:00,
2013-01-02 08:18:00,14.5,-7.5,29.32,ENE,69,3.6,3.6,36,0.00,,SKC,0.00,VWS V14.01,2013-01-02 14:18:00,
2013-01-02 08:23:00,15.1,-7.6,29.32,ENE,69,4.0,4.9,35,0.00,,SKC,0.00,VWS V14.01,2013-01-02 14:23:00,
2013-01-02 08:28:00,15.6,-7.2,29.32,ENE,69,3.1,6.3,35,0.00,,SKC,0.00,VWS V14.01,2013-01-02 14:28:00,
2013-01-02 08:33:00,16.2,-7.3,29.32,ENE,69,4.0,4.9,34,0.00,,SKC,0.00,VWS V14.01,2013-01-02 14:33:00,
2013-01-02 08:38:00,16.7,-6.8,29.32,ENE,69,3.1,3.1,34,0.00,,SKC,0.00,VWS V14.01,2013-01-02 14:38:00,
2013-01-02 08:43:00,17.1,-6.5,29.32,ENE,69,3.1,3.6,34,0.00,,SKC,0.00,VWS V14.01,2013-01-02 14:43:00,
2013-01-02 08:48:00,17.4,-6.1,29.32,ENE,69,2.7,3.1,34,0.00,,SKC,0.00,VWS V14.01,2013-01-02 14:48:00,
2013-01-02 08:53:00,17.8,-6.4,29.32,ENE,69,2.7,3.6,33,0.00,,SKC,0.00,VWS V14.01,2013-01-02 14:53:00,
2013-01-02 08:58:00,18.5,-5.8,29.32,ENE,69,2.7,3.1,33,0.00,,SKC,0.00,VWS V14.01,2013-01-02 14:58:00,
2013-01-02 09:03:00,19.2,-5.2,29.32,ENE,69,2.7,3.1,33,0.00,,SKC,0.00,VWS V14.01,2013-01-02 15:03:00,
2013-01-02 09:08:00,19.9,-5.2,29.32,ENE,69,2.7,3.6,32,0.00,,SKC,0.00,VWS V14.01,2013-01-02 15:08:00,
2013-01-02 09:13:00,20.5,-4.7,29.32,ENE,69,0.0,2.2,32,0.00,,SKC,0.00,VWS V14.01,2013-01-02 15:13:00,
2013-01-02 09:18:00,21.2,-4.0,29.32,ENE,69,0.0,2.7,32,0.00,,SKC,0.00,VWS V14.01,2013-01-02 15:18:00,
2013-01-02 09:23:00,21.7,-4.9,29.32,ENE,69,0.0,2.2,30,0.00,,SKC,0.00,VWS V14.01,2013-01-02 15:23:00,
2013-01-02 09:28:00,22.6,-4.1,29.32,ENE,69,4.0,4.0,30,0.00,,SKC,0.00,VWS V14.01,2013-01-02 15:28:00,
2013-01-02 09:33:00,23.5,-4.0,29.32,ENE,69,2.7,2.7,29,0.00,,SKC,0.00,VWS V14.01,2013-01-02 15:33:00,
2013-01-02 09:38:00,24.4,-4.7,29.32,ENE,69,4.0,4.0,27,0.00,,SKC,0.00,VWS V14.01,2013-01-02 15:38:00,
2013-01-02 09:43:00,25.0,-5.1,29.35,ENE,69,3.1,3.1,26,0.00,,SKC,0.00,VWS V14.01,2013-01-02 15:43:00,
2013-01-02 09:48:00,25.7,-4.4,29.35,ENE,69,3.6,3.6,26,0.00,,SKC,0.00,VWS V14.01,2013-01-02 15:48:00,
2013-01-02 09:53:00,26.2,-4.0,29.35,ENE,69,2.7,3.1,26,0.00,,SKC,0.00,VWS V14.01,2013-01-02 15:53:00,
2013-01-02 09:58:00,26.6,-3.7,29.32,ENE,69,3.1,3.1,26,0.00,,SKC,0.00,VWS V14.01,2013-01-02 15:58:00,
2013-01-02 10:03:00,26.6,-3.7,29.32,ENE,69,0.0,0.0,26,0.00,,SKC,0.00,VWS V14.01,2013-01-02 16:03:00,
2013-01-02 10:08:00,27.0,-5.9,29.32,ENE,69,0.0,2.2,23,0.00,,SKC,0.00,VWS V14.01,2013-01-02 16:08:00,
2013-01-02 10:13:00,27.0,-5.9,29.32,ENE,69,0.0,2.7,23,0.00,,SKC,0.00,VWS V14.01,2013-01-02 16:13:00,
2013-01-02 10:18:00,27.1,-5.7,29.32,ENE,69,0.0,2.7,23,0.00,,SKC,0.00,VWS V14.01,2013-01-02 16:18:00,
2013-01-02 10:23:00,27.3,-5.6,29.32,ENE,69,3.6,4.0,23,0.00,,SKC,0.00,VWS V14.01,2013-01-02 16:23:00,
2013-01-02 10:28:00,27.3,-5.6,29.32,ENE,69,5.4,5.4,23,0.00,,SKC,0.00,VWS V14.01,2013-01-02 16:28:00,
2013-01-02 10:33:00,27.3,-5.6,29.32,ENE,69,2.7,4.0,23,0.00,,SKC,0.00,VWS V14.01,2013-01-02 16:33:00,
2013-01-02 10:38:00,27.1,-5.7,29.32,ENE,69,3.6,3.6,23,0.00,,SKC,0.00,VWS V14.01,2013-01-02 16:38:00,
2013-01-02 10:43:00,27.3,-5.6,29.32,ENE,69,3.1,3.1,23,0.00,,SKC,0.00,VWS V14.01,2013-01-02 16:43:00,
2013-01-02 10:48:00,27.3,-5.6,29.32,ENE,69,4.0,4.0,23,0.00,,SKC,0.00,VWS V14.01,2013-01-02 16:48:00,
2013-01-02 10:53:00,27.5,-5.4,29.32,ENE,69,2.2,2.7,23,0.00,,SKC,0.00,VWS V14.01,2013-01-02 16:53:00,
2013-01-02 10:58:00,27.9,-5.1,29.32,ENE,69,2.7,4.0,23,0.00,,SKC,0.00,VWS V14.01,2013-01-02 16:58:00,
2013-01-02 11:03:00,27.7,-5.3,29.32,ENE,63,0.0,2.7,23,0.00,,SKC,0.00,VWS V14.01,2013-01-02 17:03:00,
2013-01-02 11:08:00,27.5,-2.9,29.32,East,100,3.6,3.6,26,0.00,,SKC,0.00,VWS V14.01,2013-01-02 17:08:00,
2013-01-02 11:13:00,28.2,-2.2,29.29,ENE,58,2.2,3.1,26,0.00,,SKC,0.00,VWS V14.01,2013-01-02 17:13:00,
2013-01-02 11:18:00,28.2,-2.2,29.29,NE,49,4.0,5.8,26,0.00,,SKC,0.00,VWS V14.01,2013-01-02 17:18:00,
2013-01-02 11:23:00,28.8,-2.6,29.29,East,98,4.9,11.0,25,0.00,,SKC,0.00,VWS V14.01,2013-01-02 17:23:00,
2013-01-02 11:28:00,28.4,-2.1,29.29,East,93,2.7,3.1,26,0.00,,SKC,0.00,VWS V14.01,2013-01-02 17:28:00,
2013-01-02 11:33:00,28.9,-2.5,29.29,East,79,2.7,4.0,25,0.00,,SKC,0.00,VWS V14.01,2013-01-02 17:33:00,
2013-01-02 11:37:00,28.8,-2.6,29.29,East,91,6.3,6.3,25,0.00,,SKC,0.00,VWS V14.01,2013-01-02 17:37:00,
2013-01-02 11:43:00,29.1,-2.3,29.29,ESE,107,3.1,3.6,25,0.00,,SKC,0.00,VWS V14.01,2013-01-02 17:43:00,
2013-01-02 11:48:00,29.5,-2.0,29.29,ESE,106,4.0,5.8,25,0.00,,SKC,0.00,VWS V14.01,2013-01-02 17:48:00,
2013-01-02 11:53:00,29.5,-3.7,29.29,ENE,78,5.4,6.3,23,0.00,,SKC,0.00,VWS V14.01,2013-01-02 17:53:00,
2013-01-02 11:58:00,29.3,-2.2,29.29,SE,131,2.7,2.7,25,0.00,,SKC,0.00,VWS V14.01,2013-01-02 17:58:00,
2013-01-02 12:02:00,30.6,-1.1,29.29,SE,142,3.6,6.3,25,0.00,,SKC,0.00,VWS V14.01,2013-01-02 18:02:00,
2013-01-02 12:07:00,30.9,-2.5,29.29,SE,135,5.4,5.4,23,0.00,,SKC,0.00,VWS V14.01,2013-01-02 18:07:00,
2013-01-02 12:12:00,30.9,-0.8,29.29,SE,145,3.1,4.0,25,0.00,,SKC,0.00,VWS V14.01,2013-01-02 18:12:00,
2013-01-02 12:17:00,31.1,-2.4,29.29,ENE,72,4.0,4.9,23,0.00,,SKC,0.00,VWS V14.01,2013-01-02 18:17:00,
2013-01-02 12:22:00,30.6,-2.8,29.29,ENE,74,5.4,7.2,23,0.00,,SKC,0.00,VWS V14.01,2013-01-02 18:22:00,
2013-01-02 12:27:00,30.0,-3.3,29.26,ENE,74,3.1,6.3,23,0.00,,SKC,0.00,VWS V14.01,2013-01-02 18:27:00,
2013-01-02 12:32:00,29.5,-3.7,29.26,ENE,73,3.1,3.1,23,0.00,,SKC,0.00,VWS V14.01,2013-01-02 18:32:00,
2013-01-02 12:37:00,29.3,-2.2,29.26,East,85,7.6,8.7,25,0.00,,SKC,0.00,VWS V14.01,2013-01-02 18:37:00,
2013-01-02 12:42:00,28.9,-2.5,29.26,ENE,76,5.8,8.1,25,0.00,,SKC,0.00,VWS V14.01,2013-01-02 18:42:00,
2013-01-02 12:47:00,28.6,-2.8,29.26,East,82,8.3,8.3,25,0.00,,SKC,0.00,VWS V14.01,2013-01-02 18:47:00,
2013-01-02 12:52:00,28.0,-2.4,29.26,East,84,7.2,8.3,26,0.00,,SKC,0.00,VWS V14.01,2013-01-02 18:52:00,
2013-01-02 12:57:00,27.9,-2.6,29.26,ESE,108,8.1,8.1,26,0.00,,SKC,0.00,VWS V14.01,2013-01-02 18:57:00,
2013-01-02 13:02:00,27.7,-2.7,29.26,SE,132,2.7,7.6,26,0.00,,SKC,0.00,VWS V14.01,2013-01-02 19:02:00,
2013-01-02 13:07:00,27.9,-2.6,29.26,SW,226,0.0,3.1,26,0.00,,SKC,0.00,VWS V14.01,2013-01-02 19:07:00,
2013-01-02 13:12:00,28.2,-2.2,29.26,ENE,75,3.1,4.0,26,0.00,,SKC,0.00,VWS V14.01,2013-01-02 19:12:00,
2013-01-02 13:17:00,28.2,-2.2,29.26,East,82,8.3,8.3,26,0.00,,SKC,0.00,VWS V14.01,2013-01-02 19:17:00,
2013-01-02 13:22:00,27.9,-2.6,29.26,ENE,57,4.0,5.8,26,0.00,,SKC,0.00,VWS V14.01,2013-01-02 19:22:00,
2013-01-02 13:27:00,27.7,-2.7,29.26,NE,54,2.7,5.8,26,0.00,,SKC,0.00,VWS V14.01,2013-01-02 19:27:00,
2013-01-02 13:32:00,27.7,-2.7,29.26,NE,47,3.1,6.3,26,0.00,,SKC,0.00,VWS V14.01,2013-01-02 19:32:00,
2013-01-02 13:37:00,27.9,-5.1,29.26,SE,139,5.8,6.3,23,0.00,,SKC,0.00,VWS V14.01,2013-01-02 19:37:00,
2013-01-02 13:42:00,28.0,-5.0,29.23,ESE,112,7.6,7.6,23,0.00,,SKC,0.00,VWS V14.01,2013-01-02 19:42:00,
2013-01-02 13:47:00,28.6,-4.5,29.23,NE,48,3.1,5.4,23,0.00,,SKC,0.00,VWS V14.01,2013-01-02 19:47:00,
2013-01-02 13:52:00,28.0,-5.0,29.23,East,82,8.3,8.3,23,0.00,,SKC,0.00,VWS V14.01,2013-01-02 19:52:00,
2013-01-02 13:57:00,28.2,-4.8,29.26,East,84,2.7,4.9,23,0.00,,SKC,0.00,VWS V14.01,2013-01-02 19:57:00,
2013-01-02 14:02:00,27.9,-5.1,29.26,NE,46,9.6,9.6,23,0.00,,SKC,0.00,VWS V14.01,2013-01-02 20:02:00,
2013-01-02 14:07:00,27.3,-5.6,29.26,East,87,3.1,8.7,23,0.00,,SKC,0.00,VWS V14.01,2013-01-02 20:07:00,
2013-01-02 14:12:00,27.0,-5.9,29.26,ESE,102,6.3,6.3,23,0.00,,SKC,0.00,VWS V14.01,2013-01-02 20:12:00,
2013-01-02 14:17:00,27.0,-5.9,29.26,ENE,71,8.1,11.0,23,0.00,,SKC,0.00,VWS V14.01,2013-01-02 20:17:00,
2013-01-02 14:22:00,26.8,-6.0,29.26,East,80,8.7,8.7,23,0.00,,SKC,0.00,VWS V14.01,2013-01-02 20:22:00,
2013-01-02 14:27:00,26.8,-6.0,29.26,ESE,121,5.8,8.1,23,0.00,,SKC,0.00,VWS V14.01,2013-01-02 20:27:00,
2013-01-02 14:32:00,27.0,-5.9,29.26,East,97,3.1,3.6,23,0.00,,SKC,0.00,VWS V14.01,2013-01-02 20:32:00,
2013-01-02 14:37:00,26.8,-6.0,29.26,NE,54,5.8,8.7,23,0.00,,SKC,0.00,VWS V14.01,2013-01-02 20:37:00,
2013-01-02 14:42:00,26.8,-6.0,29.26,ENE,78,5.4,5.8,23,0.00,,SKC,0.00,VWS V14.01,2013-01-02 20:42:00,
2013-01-02 14:47:00,26.6,-5.3,29.26,East,88,5.4,12.3,24,0.00,,SKC,0.00,VWS V14.01,2013-01-02 20:47:00,
2013-01-02 14:52:00,26.8,-6.0,29.26,NE,52,0.0,4.9,23,0.00,,SKC,0.00,VWS V14.01,2013-01-02 20:52:00,
2013-01-02 14:57:00,27.0,-5.9,29.26,East,92,3.1,5.4,23,0.00,,SKC,0.00,VWS V14.01,2013-01-02 20:57:00,
2013-01-02 15:02:00,27.1,-5.7,29.26,ENE,76,0.0,2.2,23,0.00,,SKC,0.00,VWS V14.01,2013-01-02 21:02:00,
2013-01-02 15:07:00,26.8,-6.0,29.26,East,82,4.9,6.3,23,0.00,,SKC,0.00,VWS V14.01,2013-01-02 21:07:00,
2013-01-02 15:12:00,26.8,-6.0,29.26,East,82,4.0,4.0,23,0.00,,SKC,0.00,VWS V14.01,2013-01-02 21:12:00,
2013-01-02 15:17:00,26.4,-5.5,29.26,NE,51,4.9,4.9,24,0.00,,SKC,0.00,VWS V14.01,2013-01-02 21:17:00,
2013-01-02 15:22:00,26.4,-5.5,29.26,ENE,72,7.6,7.6,24,0.00,,SKC,0.00,VWS V14.01,2013-01-02 21:22:00,
2013-01-02 15:27:00,26.2,-5.6,29.26,East,79,4.9,8.7,24,0.00,,SKC,0.00,VWS V14.01,2013-01-02 21:27:00,
2013-01-02 15:32:00,26.1,-5.8,29.26,ENE,76,4.9,7.2,24,0.00,,SKC,0.00,VWS V14.01,2013-01-02 21:32:00,
2013-01-02 15:37:00,26.1,-5.8,29.26,ESE,114,8.3,8.3,24,0.00,,SKC,0.00,VWS V14.01,2013-01-02 21:37:00,
2013-01-02 15:42:00,25.7,-6.1,29.26,East,83,6.3,8.1,24,0.00,,SKC,0.00,VWS V14.01,2013-01-02 21:42:00,
2013-01-02 15:47:00,25.5,-6.2,29.26,ENE,71,3.6,3.6,24,0.00,,SKC,0.00,VWS V14.01,2013-01-02 21:47:00,
2013-01-02 15:52:00,25.3,-6.4,29.26,NE,48,5.4,5.4,24,0.00,,SKC,0.00,VWS V14.01,2013-01-02 21:52:00,
2013-01-02 15:57:00,25.2,-6.6,29.26,East,79,4.0,8.1,24,0.00,,SKC,0.00,VWS V14.01,2013-01-02 21:57:00,
2013-01-02 16:02:00,25.0,-6.7,29.26,NNE,25,5.8,6.3,24,0.00,,SKC,0.00,VWS V14.01,2013-01-02 22:02:00,
2013-01-02 16:07:00,24.8,-6.9,29.26,NE,42,5.8,8.1,24,0.00,,SKC,0.00,VWS V14.01,2013-01-02 22:07:00,
2013-01-02 16:12:00,24.4,-7.2,29.26,North,11,5.4,5.4,24,0.00,,SKC,0.00,VWS V14.01,2013-01-02 22:12:00,
2013-01-02 16:17:00,24.3,-7.3,29.26,ENE,72,8.1,8.3,24,0.00,,SKC,0.00,VWS V14.01,2013-01-02 22:17:00,
2013-01-02 16:22:00,24.1,-7.5,29.26,NE,47,2.7,5.4,24,0.00,,SKC,0.00,VWS V14.01,2013-01-02 22:22:00,
2013-01-02 16:27:00,23.9,-7.6,29.26,ESE,111,8.3,10.1,24,0.00,,SKC,0.00,VWS V14.01,2013-01-02 22:27:00,
2013-01-02 16:32:00,23.5,-7.9,29.26,SE,134,5.4,5.4,24,0.00,,SKC,0.00,VWS V14.01,2013-01-02 22:32:00,
2013-01-02 16:37:00,23.4,-8.1,29.26,East,91,5.4,8.7,24,0.00,,SKC,0.00,VWS V14.01,2013-01-02 22:37:00,
2013-01-02 16:42:00,23.2,-8.2,29.26,ENE,59,9.2,9.2,24,0.00,,SKC,0.00,VWS V14.01,2013-01-02 22:42:00,
2013-01-02 16:47:00,23.0,-7.6,29.26,East,81,6.7,8.7,25,0.00,,SKC,0.00,VWS V14.01,2013-01-02 22:47:00,
2013-01-02 16:52:00,22.8,-7.7,29.26,East,87,3.6,5.4,25,0.00,,SKC,0.00,VWS V14.01,2013-01-02 22:52:00,
2013-01-02 16:57:00,22.8,-7.7,29.26,East,86,8.1,8.1,25,0.00,,SKC,0.00,VWS V14.01,2013-01-02 22:57:00,
2013-01-02 17:02:00,22.6,-7.9,29.26,ENE,61,8.7,8.7,25,0.00,,SKC,0.00,VWS V14.01,2013-01-02 23:02:00,
2013-01-02 17:07:00,22.6,-7.9,29.26,NE,50,4.9,6.3,25,0.00,,SKC,0.00,VWS V14.01,2013-01-02 23:07:00,
2013-01-02 17:12:00,22.3,-8.2,29.26,ENE,68,7.6,8.3,25,0.00,,SKC,0.00,VWS V14.01,2013-01-02 23:12:00,
2013-01-02 17:17:00,21.9,-8.5,29.26,ENE,59,5.8,6.3,25,0.00,,SKC,0.00,VWS V14.01,2013-01-02 23:17:00,
2013-01-02 17:22:00,21.7,-7.1,29.26,ENE,71,5.8,8.3,27,0.00,,SKC,0.00,VWS V14.01,2013-01-02 23:22:00,
2013-01-02 17:27:00,21.2,-7.6,29.26,East,88,7.6,8.7,27,0.00,,SKC,0.00,VWS V14.01,2013-01-02 23:27:00,
2013-01-02 17:32:00,21.0,-5.5,29.26,ENE,77,6.3,6.3,30,0.00,,SKC,0.00,VWS V14.01,2013-01-02 23:32:00,
2013-01-02 17:37:00,20.8,-5.7,29.26,ENE,63,2.7,6.3,30,0.00,,SKC,0.00,VWS V14.01,2013-01-02 23:37:00,
2013-01-02 17:42:00,20.5,-6.0,29.26,NE,52,6.3,6.3,30,0.00,,SKC,0.00,VWS V14.01,2013-01-02 23:42:00,
2013-01-02 17:47:00,20.3,-6.2,29.26,East,86,8.1,8.1,30,0.00,,SKC,0.00,VWS V14.01,2013-01-02 23:47:00,
2013-01-02 17:52:00,20.3,-6.2,29.26,ENE,65,6.3,8.3,30,0.00,,SKC,0.00,VWS V14.01,2013-01-02 23:52:00,
2013-01-02 17:57:00,20.1,-5.0,29.26,ENE,75,12.3,12.3,32,0.00,,SKC,0.00,VWS V14.01,2013-01-02 23:57:00,
2013-01-02 18:02:00,20.1,-5.0,29.26,ENE,59,4.0,4.9,32,0.00,,SKC,0.00,VWS V14.01,2013-01-03 00:02:00,
2013-01-02 18:07:00,19.9,-5.2,29.26,East,83,5.8,8.3,32,0.00,,SKC,0.00,VWS V14.01,2013-01-03 00:07:00,
2013-01-02 18:12:00,19.9,-5.2,29.26,East,88,7.2,8.7,32,0.00,,SKC,0.00,VWS V14.01,2013-01-03 00:12:00,
2013-01-02 18:17:00,19.9,-5.2,29.26,ENE,67,8.1,9.2,32,0.00,,SKC,0.00,VWS V14.01,2013-01-03 00:17:00,
2013-01-02 18:22:00,19.8,-5.3,29.26,East,87,9.2,10.1,32,0.00,,SKC,0.00,VWS V14.01,2013-01-03 00:22:00,
2013-01-02 18:27:00,19.8,-5.3,29.26,ENE,77,4.9,10.5,32,0.00,,SKC,0.00,VWS V14.01,2013-01-03 00:27:00,
2013-01-02 18:32:00,19.8,-5.3,29.26,NE,42,8.3,8.3,32,0.00,,SKC,0.00,VWS V14.01,2013-01-03 00:32:00,
2013-01-02 18:38:00,19.8,-5.3,29.26,NE,51,6.3,7.2,32,0.00,,SKC,0.00,VWS V14.01,2013-01-03 00:38:00,
2013-01-02 18:43:00,19.8,-5.3,29.26,East,85,8.3,8.7,32,0.00,,SKC,0.00,VWS V14.01,2013-01-03 00:43:00,
2013-01-02 18:48:00,19.8,-5.3,29.26,East,87,8.1,8.1,32,0.00,,SKC,0.00,VWS V14.01,2013-01-03 00:48:00,
2013-01-02 18:53:00,19.8,-5.3,29.26,East,90,8.3,8.3,32,0.00,,SKC,0.00,VWS V14.01,2013-01-03 00:53:00,
2013-01-02 18:58:00,19.8,-5.3,29.26,East,86,8.1,10.5,32,0.00,,SKC,0.00,VWS V14.01,2013-01-03 00:58:00,
2013-01-02 19:03:00,19.9,-5.2,29.26,East,85,7.6,8.3,32,0.00,,SKC,0.00,VWS V14.01,2013-01-03 01:03:00,
2013-01-02 19:08:00,19.8,-5.3,29.26,ENE,77,8.3,13.2,32,0.00,,SKC,0.00,VWS V14.01,2013-01-03 01:08:00,
2013-01-02 19:13:00,19.8,-5.3,29.26,ENE,63,5.8,8.1,32,0.00,,SKC,0.00,VWS V14.01,2013-01-03 01:13:00,
2013-01-02 19:18:00,19.8,-5.3,29.26,ENE,73,4.0,10.5,32,0.00,,SKC,0.00,VWS V14.01,2013-01-03 01:18:00,
2013-01-02 19:23:00,19.8,-5.3,29.26,East,79,5.8,8.7,32,0.00,,SKC,0.00,VWS V14.01,2013-01-03 01:23:00,
2013-01-02 19:28:00,19.8,-5.3,29.26,East,82,9.2,10.1,32,0.00,,SKC,0.00,VWS V14.01,2013-01-03 01:28:00,
2013-01-02 19:33:00,19.6,-5.5,29.26,NE,37,8.1,10.1,32,0.00,,SKC,0.00,VWS V14.01,2013-01-03 01:33:00,
2013-01-02 19:38:00,19.8,-5.3,29.26,ENE,66,6.3,10.1,32,0.00,,SKC,0.00,VWS V14.01,2013-01-03 01:38:00,
2013-01-02 19:43:00,19.6,-5.5,29.26,East,82,12.3,12.3,32,0.00,,SKC,0.00,VWS V14.01,2013-01-03 01:43:00,
2013-01-02 19:48:00,19.6,-5.5,29.26,ENE,76,8.1,10.1,32,0.00,,SKC,0.00,VWS V14.01,2013-01-03 01:48:00,
2013-01-02 19:53:00,19.6,-5.5,29.26,East,92,11.0,11.0,32,0.00,,SKC,0.00,VWS V14.01,2013-01-03 01:53:00,
2013-01-02 19:58:00,19.4,-5.0,29.26,NE,52,4.9,10.5,33,0.00,,SKC,0.00,VWS V14.01,2013-01-03 01:58:00,
2013-01-02 20:03:00,19.4,-5.0,29.26,East,82,8.1,8.3,33,0.00,,SKC,0.00,VWS V14.01,2013-01-03 02:03:00,
2013-01-02 20:08:00,19.4,-7.0,29.26,ENE,74,8.1,8.1,30,0.00,,SKC,0.00,VWS V14.01,2013-01-03 02:08:00,
2013-01-02 20:13:00,19.4,-5.0,29.26,NE,48,3.1,5.4,33,0.00,,SKC,0.00,VWS V14.01,2013-01-03 02:13:00,
2013-01-02 20:18:00,19.4,-5.0,29.26,NE,49,4.0,4.9,33,0.00,,SKC,0.00,VWS V14.01,2013-01-03 02:18:00,
2013-01-02 20:23:00,19.2,-5.2,29.26,ENE,59,3.1,6.3,33,0.00,,SKC,0.00,VWS V14.01,2013-01-03 02:23:00,
2013-01-02 20:28:00,19.2,-5.2,29.26,East,80,4.9,6.3,33,0.00,,SKC,0.00,VWS V14.01,2013-01-03 02:28:00,
2013-01-02 20:33:00,19.2,-5.2,29.26,ENE,72,5.4,5.4,33,0.00,,SKC,0.00,VWS V14.01,2013-01-03 02:33:00,
2013-01-02 20:38:00,19.2,-5.2,29.26,East,90,5.4,5.8,33,0.00,,SKC,0.00,VWS V14.01,2013-01-03 02:38:00,
2013-01-02 20:43:00,19.2,-5.2,29.26,East,83,4.9,5.4,33,0.00,,SKC,0.00,VWS V14.01,2013-01-03 02:43:00,
2013-01-02 20:48:00,19.2,-7.1,29.26,ENE,66,2.2,4.0,30,0.00,,SKC,0.00,VWS V14.01,2013-01-03 02:48:00,
2013-01-02 20:53:00,19.2,-7.1,29.26,East,93,3.1,3.6,30,0.00,,SKC,0.00,VWS V14.01,2013-01-03 02:53:00,
2013-01-02 20:58:00,19.0,-5.3,29.26,East,85,3.1,4.9,33,0.00,,SKC,0.00,VWS V14.01,2013-01-03 02:58:00,
2013-01-02 21:03:00,19.0,-5.3,29.26,ENE,77,4.0,4.0,33,0.00,,SKC,0.00,VWS V14.01,2013-01-03 03:03:00,
2013-01-02 21:08:00,19.0,-5.3,29.26,East,79,3.1,6.3,33,0.00,,SKC,0.00,VWS V14.01,2013-01-03 03:08:00,
2013-01-02 21:13:00,19.0,-5.3,29.26,East,87,3.6,3.6,33,0.00,,SKC,0.00,VWS V14.01,2013-01-03 03:13:00,
2013-01-02 21:18:00,19.0,-5.3,29.26,ENE,74,3.1,4.0,33,0.00,,SKC,0.00,VWS V14.01,2013-01-03 03:18:00,
2013-01-02 21:23:00,19.0,-5.3,29.26,East,83,3.1,5.4,33,0.00,,SKC,0.00,VWS V14.01,2013-01-03 03:23:00,
2013-01-02 21:28:00,19.2,-5.2,29.23,East,95,5.4,5.4,33,0.00,,SKC,0.00,VWS V14.01,2013-01-03 03:28:00,
2013-01-02 21:33:00,19.2,-7.1,29.23,ENE,78,6.3,6.3,30,0.00,,SKC,0.00,VWS V14.01,2013-01-03 03:33:00,
2013-01-02 21:38:00,19.2,-5.2,29.23,ENE,77,3.1,3.1,33,0.00,,SKC,0.00,VWS V14.01,2013-01-03 03:38:00,
2013-01-02 21:43:00,19.2,-5.2,29.26,East,92,3.1,3.1,33,0.00,,SKC,0.00,VWS V14.01,2013-01-03 03:43:00,
2013-01-02 21:48:00,19.2,-5.2,29.26,ENE,60,3.6,5.8,33,0.00,,SKC,0.00,VWS V14.01,2013-01-03 03:48:00,
2013-01-02 21:53:00,19.2,-7.1,29.26,East,82,5.4,5.4,30,0.00,,SKC,0.00,VWS V14.01,2013-01-03 03:53:00,
2013-01-02 21:58:00,19.2,-5.2,29.26,ENE,65,2.2,2.7,33,0.00,,SKC,0.00,VWS V14.01,2013-01-03 03:58:00,
2013-01-02 22:03:00,19.2,-7.1,29.26,SE,124,5.4,5.4,30,0.00,,SKC,0.00,VWS V14.01,2013-01-03 04:03:00,
2013-01-02 22:08:00,19.2,-5.2,29.26,NE,54,2.7,2.7,33,0.00,,SKC,0.00,VWS V14.01,2013-01-03 04:08:00,
2013-01-02 22:13:00,19.0,-5.3,29.26,ENE,74,3.1,5.8,33,0.00,,SKC,0.00,VWS V14.01,2013-01-03 04:13:00,
2013-01-02 22:18:00,19.0,-5.3,29.26,ENE,62,4.9,4.9,33,0.00,,SKC,0.00,VWS V14.01,2013-01-03 04:18:00,
2013-01-02 22:23:00,19.2,-5.2,29.26,ENE,73,3.6,4.9,33,0.00,,SKC,0.00,VWS V14.01,2013-01-03 04:23:00,
2013-01-02 22:28:00,19.0,-5.3,29.26,ENE,70,0.0,2.7,33,0.00,,SKC,0.00,VWS V14.01,2013-01-03 04:28:00,
2013-01-02 22:33:00,19.2,-5.2,29.26,ENE,69,2.7,2.7,33,0.00,,SKC,0.00,VWS V14.01,2013-01-03 04:33:00,
2013-01-02 22:38:00,19.2,-5.2,29.26,NE,55,2.7,4.9,33,0.00,,SKC,0.00,VWS V14.01,2013-01-03 04:38:00,
2013-01-02 22:43:00,19.2,-5.2,29.26,NE,55,4.0,5.4,33,0.00,,SKC,0.00,VWS V14.01,2013-01-03 04:43:00,
2013-01-02 22:48:00,19.2,-5.2,29.26,East,94,5.8,5.8,33,0.00,,SKC,0.00,VWS V14.01,2013-01-03 04:48:00,
2013-01-02 22:53:00,19.2,-5.2,29.26,ESE,104,5.8,5.8,33,0.00,,SKC,0.00,VWS V14.01,2013-01-03 04:53:00,
2013-01-02 22:58:00,19.2,-5.2,29.26,ESE,113,10.5,10.5,33,0.00,,SKC,0.00,VWS V14.01,2013-01-03 04:58:00,
2013-01-02 23:00:00,19.2,-5.2,29.26,ENE,67,2.7,3.6,33,0.00,,SKC,0.00,VWS V14.01,2013-01-03 05:00:00,
2013-01-02 23:03:00,19.2,-5.2,29.26,ENE,76,3.6,5.4,33,0.00,,SKC,0.00,VWS V14.01,2013-01-03 05:03:00,
2013-01-02 23:08:00,19.2,-5.2,29.26,ESE,105,4.9,8.7,33,0.00,,SKC,0.00,VWS V14.01,2013-01-03 05:08:00,
2013-01-02 23:13:00,19.4,-5.0,29.23,ENE,74,6.3,10.1,33,0.00,,SKC,0.00,VWS V14.01,2013-01-03 05:13:00,
2013-01-02 23:18:00,19.4,-5.0,29.23,ENE,77,7.6,7.6,33,0.00,,SKC,0.00,VWS V14.01,2013-01-03 05:18:00,
2013-01-02 23:23:00,19.6,-6.8,29.23,East,79,7.6,8.3,30,0.00,,SKC,0.00,VWS V14.01,2013-01-03 05:23:00,
2013-01-02 23:28:00,19.6,-5.5,29.26,NE,54,8.3,10.1,32,0.00,,SKC,0.00,VWS V14.01,2013-01-03 05:28:00,
2013-01-02 23:33:00,19.6,-5.5,29.26,East,95,7.2,7.2,32,0.00,,SKC,0.00,VWS V14.01,2013-01-03 05:33:00,
2013-01-02 23:38:00,19.6,-5.5,29.26,ESE,111,5.4,6.3,32,0.00,,SKC,0.00,VWS V14.01,2013-01-03 05:38:00,
2013-01-02 23:43:00,19.4,-5.0,29.23,East,86,8.3,8.3,33,0.00,,SKC,0.00,VWS V14.01,2013-01-03 05:43:00,
2013-01-02 23:48:00,19.6,-5.5,29.23,ENE,57,8.3,8.3,32,0.00,,SKC,0.00,VWS V14.01,2013-01-03 05:48:00,
2013-01-02 23:53:00,19.6,-5.5,29.23,East,83,5.8,7.6,32,0.00,,SKC,0.00,VWS V14.01,2013-01-03 05:53:00,
2013-01-02 23:58:00,19.4,-5.0,29.23,ENE,72,5.4,7.6,33,0.00,,SKC,0.00,VWS V14.01,2013-01-03 05:58:00,